Time;durP1;ratioP1;P1;durP2;ratioP2;P2;SDS_P1;SDS_P2;PMS_P1;PMS_P2;Temp;Humidity;BMP_temperature;BMP_pressure;BME280_temperature;BME280_humidity;BME280_pressure;Samples;Min_cycle;Max_cycle;Signal;HPM_P1;HPM_P2
2022/12/21 00:02:14;;;;;;;;;;;;;;;;;;6255671;22;19919;-96
2022/12/21 00:04:42;;;;;;;;;;;;;;;;;;6255648;22;20140;-96
2022/12/21 00:07:08;;;;;;;;;;;;;;;;;;6255653;22;19937;-96
2022/12/21 00:09:35;;;;;;;;;;;;;;;;;;6255735;22;19990;-95
2022/12/21 00:12:01;;;;;;;;;;;;;;;;;;6255943;22;19918;-96
2022/12/21 00:14:27;;;;;;;;;;;;;;;;;;6255556;22;19922;-96
2022/12/21 00:16:53;;;;;;;;;;;;;;;;;;6255828;22;19915;-95
2022/12/21 00:19:19;;;;;;;;;;;;;;;;;;6255486;22;19915;-96
2022/12/21 00:21:45;;;;;;;;;;;;;;;;;;6255679;22;19922;-96
2022/12/21 00:24:11;;;;;;;;;;;;;;;;;;6255833;22;19923;-96
2022/12/21 00:26:37;;;;;;;;;;;;;;;;;;6257024;22;19961;-96
2022/12/21 00:29:02;;;;;;;;;;;;;;;;;;6257448;22;19921;-96
2022/12/21 00:31:28;;;;;;;;;;;;;;;;;;6257902;22;20008;-96
2022/12/21 00:33:54;;;;;;;;;;;;;;;;;;6257694;22;19993;-96
2022/12/21 00:36:20;;;;;;;;;;;;;;;;;;6257315;22;19919;-96
2022/12/21 00:38:49;;;;;;;;;;;;;;;;;;6257509;22;20325;-95
2022/12/21 00:41:15;;;;;;;;;;;;;;;;;;6257655;22;19921;-96
2022/12/21 00:43:41;;;;;;;;;;;;;;;;;;6257533;22;20253;-96
2022/12/21 00:46:10;;;;;;;;;;;;;;;;;;6257570;22;20341;-96
2022/12/21 00:48:36;;;;;;;;;;;;;;;;;;6283141;22;19914;-96
2022/12/21 00:51:02;;;;;;;;;;;;;;;;;;6256982;22;19963;-96
2022/12/21 00:53:28;;;;;;;;;;;;;;;;;;6257066;22;19990;-94
2022/12/21 00:55:54;;;;;;;;;;;;;;;;;;6257148;22;20307;-94
2022/12/21 00:58:20;;;;;;;;;;;;;;;;;;6257898;22;19987;-94
2022/12/21 01:00:46;;;;;;;;;;;;;;;;;;6257173;22;19919;-93
2022/12/21 01:03:12;;;;;;;;;;;;;;;;;;6257222;22;19918;-93
2022/12/21 01:05:37;;;;;;;;;;;;;;;;;;6257108;22;19985;-94
2022/12/21 01:08:03;;;;;;;;;;;;;;;;;;6257133;22;20320;-94
2022/12/21 01:10:29;;;;;;;;;;;;;;;;;;6257077;22;19915;-96
2022/12/21 01:12:57;;;;;;;;;;;;;;;;;;6257059;22;19915;-95
2022/12/21 01:15:23;;;;;;;;;;;;;;;;;;6257095;22;19922;-95
2022/12/21 01:17:49;;;;;;;;;;;;;;;;;;6257102;22;19915;-95
2022/12/21 01:20:15;;;;;;;;;;;;;;;;;;6256982;22;19928;-95
2022/12/21 01:22:40;;;;;;;;;;;;;;;;;;6256806;22;19923;-95
2022/12/21 01:25:06;;;;;;;;;;;;;;;;;;6257093;22;19968;-95
2022/12/21 01:27:32;;;;;;;;;;;;;;;;;;6256909;22;19961;-96
2022/12/21 01:29:58;;;;;;;;;;;;;;;;;;6256656;22;19915;-95
2022/12/21 01:32:24;;;;;;;;;;;;;;;;;;6257231;22;19915;-96
2022/12/21 01:34:50;;;;;;;;;;;;;;;;;;6256818;22;20333;-95
2022/12/21 01:37:16;;;;;;;;;;;;;;;;;;6256714;22;19925;-95
2022/12/21 01:39:42;;;;;;;;;;;;;;;;;;6256711;22;19915;-95
2022/12/21 01:42:08;;;;;;;;;;;;;;;;;;6256865;22;19922;-94
2022/12/21 01:44:34;;;;;;;;;;;;;;;;;;6256703;22;19954;-94
2022/12/21 01:47:00;;;;;;;;;;;;;;;;;;6256774;22;19914;-95
2022/12/21 01:52:14;;;;;;;;;;;;;;;;;;6282156;22;19937;-95
2022/12/21 01:54:40;;;;;;;;;;;;;;;;;;6256602;22;19919;-95
2022/12/21 01:57:07;;;;;;;;;;;;;;;;;;6257017;22;19985;-95
2022/12/21 01:59:33;;;;;;;;;;;;;;;;;;6256639;22;19989;-96
2022/12/21 02:01:58;;;;;;;;;;;;;;;;;;6256486;22;19975;-96
2022/12/21 02:04:24;;;;;;;;;;;;;;;;;;6256468;22;19915;-95
2022/12/21 02:06:50;;;;;;;;;;;;;;;;;;6256484;22;19919;-95
2022/12/21 02:09:16;;;;;;;;;;;;;;;;;;6256343;22;19918;-95
2022/12/21 02:11:42;;;;;;;;;;;;;;;;;;6256450;22;20248;-94
2022/12/21 02:14:08;;;;;;;;;;;;;;;;;;6256259;22;19967;-94
2022/12/21 02:16:34;;;;;;;;;;;;;;;;;;6256383;22;19915;-94
2022/12/21 02:19:00;;;;;;;;;;;;;;;;;;6256241;22;19985;-95
2022/12/21 02:21:26;;;;;;;;;;;;;;;;;;6256471;22;20356;-94
2022/12/21 02:23:52;;;;;;;;;;;;;;;;;;6256340;22;19926;-95
2022/12/21 02:26:17;;;;;;;;;;;;;;;;;;6256218;22;19914;-94
2022/12/21 02:28:43;;;;;;;;;;;;;;;;;;6281847;22;19915;-94
2022/12/21 02:31:09;;;;;;;;;;;;;;;;;;6256174;22;20229;-95
2022/12/21 02:33:35;;;;;;;;;;;;;;;;;;6256329;22;19936;-95
2022/12/21 02:36:01;;;;;;;;;;;;;;;;;;6256070;22;19968;-95
2022/12/21 02:38:27;;;;;;;;;;;;;;;;;;6255950;22;19964;-94
2022/12/21 02:40:53;;;;;;;;;;;;;;;;;;6256544;22;20386;-94
2022/12/21 02:46:03;;;;;;;;;;;;;;;;;;6281883;22;19986;-95
2022/12/21 02:48:29;;;;;;;;;;;;;;;;;;6255668;22;19954;-94
2022/12/21 02:50:55;;;;;;;;;;;;;;;;;;6255855;22;19914;-94
2022/12/21 02:53:21;;;;;;;;;;;;;;;;;;6256015;22;19919;-94
2022/12/21 02:55:47;;;;;;;;;;;;;;;;;;6255937;22;19922;-94
2022/12/21 02:58:13;;;;;;;;;;;;;;;;;;6256018;22;19915;-95
2022/12/21 03:00:39;;;;;;;;;;;;;;;;;;6281508;22;19915;-95
2022/12/21 03:05:49;;;;;;;;;;;;;;;;;;6281766;22;20218;-95
2022/12/21 03:08:15;;;;;;;;;;;;;;;;;;6256474;22;19968;-95
2022/12/21 03:10:41;;;;;;;;;;;;;;;;;;6255921;22;19923;-95
2022/12/21 03:13:07;;;;;;;;;;;;;;;;;;6281587;22;19922;-95
2022/12/21 03:15:33;;;;;;;;;;;;;;;;;;6256225;22;19915;-95
2022/12/21 03:17:59;;;;;;;;;;;;;;;;;;6281555;22;19986;-95
2022/12/21 03:20:25;;;;;;;;;;;;;;;;;;6255781;22;19919;-95
2022/12/21 03:22:51;;;;;;;;;;;;;;;;;;6255754;22;19930;-94
2022/12/21 03:25:17;;;;;;;;;;;;;;;;;;6281441;22;19989;-94
2022/12/21 03:27:43;;;;;;;;;;;;;;;;;;6255805;22;19915;-95
2022/12/21 03:30:08;;;;;;;;;;;;;;;;;;6255795;22;19973;-96
2022/12/21 03:32:35;;;;;;;;;;;;;;;;;;6255983;22;19946;-95
2022/12/21 03:35:00;;;;;;;;;;;;;;;;;;6255815;22;19919;-95
2022/12/21 03:37:26;;;;;;;;;;;;;;;;;;6255880;22;20248;-94
2022/12/21 03:39:53;;;;;;;;;;;;;;;;;;6255692;22;19915;-95
2022/12/21 03:42:19;;;;;;;;;;;;;;;;;;6255813;22;19945;-95
2022/12/21 03:44:45;;;;;;;;;;;;;;;;;;6255862;22;19914;-95
2022/12/21 03:47:11;;;;;;;;;;;;;;;;;;6256003;22;19919;-95
2022/12/21 03:49:37;;;;;;;;;;;;;;;;;;6255813;22;20290;-95
2022/12/21 03:52:04;;;;;;;;;;;;;;;;;;6255682;22;19922;-95
2022/12/21 03:54:30;;;;;;;;;;;;;;;;;;6281292;22;19915;-95
2022/12/21 03:56:56;;;;;;;;;;;;;;;;;;6255742;22;19915;-95
2022/12/21 03:59:22;;;;;;;;;;;;;;;;;;6256035;22;19915;-94
2022/12/21 04:01:48;;;;;;;;;;;;;;;;;;6257881;22;19922;-95
2022/12/21 04:04:14;;;;;;;;;;;;;;;;;;6257593;22;19919;-95
2022/12/21 04:06:40;;;;;;;;;;;;;;;;;;6257736;22;20440;-95
2022/12/21 04:09:06;;;;;;;;;;;;;;;;;;6257570;22;19919;-95
2022/12/21 04:14:16;;;;;;;;;;;;;;;;;;6283002;22;19915;-95
2022/12/21 04:16:42;;;;;;;;;;;;;;;;;;6257730;22;19922;-95
2022/12/21 04:21:53;;;;;;;;;;;;;;;;;;6283278;22;19915;-95
2022/12/21 04:29:48;;;;;;;;;;;;;;;;;;6282947;22;20328;-95
2022/12/21 04:32:14;;;;;;;;;;;;;;;;;;6257344;22;19922;-95
2022/12/21 04:34:40;;;;;;;;;;;;;;;;;;6257531;22;19915;-95
2022/12/21 04:39:50;;;;;;;;;;;;;;;;;;6282847;22;19919;-94
2022/12/21 04:42:16;;;;;;;;;;;;;;;;;;6257371;22;19942;-95
2022/12/21 04:44:42;;;;;;;;;;;;;;;;;;6257553;22;19915;-95
2022/12/21 04:47:08;;;;;;;;;;;;;;;;;;6257281;22;19919;-94
2022/12/21 04:49:34;;;;;;;;;;;;;;;;;;6257091;22;19919;-94
2022/12/21 04:52:00;;;;;;;;;;;;;;;;;;6257266;22;20382;-94
2022/12/21 04:54:26;;;;;;;;;;;;;;;;;;6257885;22;20029;-95
2022/12/21 04:56:52;;;;;;;;;;;;;;;;;;6257077;22;19914;-94
2022/12/21 04:59:18;;;;;;;;;;;;;;;;;;6257035;22;19922;-94
2022/12/21 05:01:44;;;;;;;;;;;;;;;;;;6257096;22;19919;-95
2022/12/21 05:04:10;;;;;;;;;;;;;;;;;;6256777;22;19919;-95
2022/12/21 05:06:36;;;;;;;;;;;;;;;;;;6257326;22;19914;-95
2022/12/21 05:09:02;;;;;;;;;;;;;;;;;;6257095;22;20401;-95
2022/12/21 05:11:28;;;;;;;;;;;;;;;;;;6256977;22;20044;-94
2022/12/21 05:13:53;;;;;;;;;;;;;;;;;;6257105;22;19919;-94
2022/12/21 05:16:19;;;;;;;;;;;;;;;;;;6282665;22;19923;-95
2022/12/21 05:18:45;;;;;;;;;;;;;;;;;;6256659;22;19915;-93
2022/12/21 05:21:11;;;;;;;;;;;;;;;;;;6256919;22;20252;-94
2022/12/21 05:23:37;;;;;;;;;;;;;;;;;;6256699;22;19997;-95
2022/12/21 05:26:03;;;;;;;;;;;;;;;;;;6256915;22;19957;-95
2022/12/21 05:28:29;;;;;;;;;;;;;;;;;;6256926;22;19919;-94
2022/12/21 05:30:55;;;;;;;;;;;;;;;;;;6257211;22;20245;-95
2022/12/21 05:33:21;;;;;;;;;;;;;;;;;;6257177;22;19925;-95
2022/12/21 05:35:47;;;;;;;;;;;;;;;;;;6282515;22;19922;-94
2022/12/21 05:38:13;;;;;;;;;;;;;;;;;;6256802;22;19950;-95
2022/12/21 05:40:39;;;;;;;;;;;;;;;;;;6256441;22;19961;-95
2022/12/21 05:43:05;;;;;;;;;;;;;;;;;;6256744;22;19993;-95
2022/12/21 05:45:30;;;;;;;;;;;;;;;;;;6256753;22;19921;-95
2022/12/21 05:47:56;;;;;;;;;;;;;;;;;;6256649;22;19922;-95
2022/12/21 05:50:22;;;;;;;;;;;;;;;;;;6256530;22;19921;-95
2022/12/21 05:52:48;;;;;;;;;;;;;;;;;;6256678;22;19964;-94
2022/12/21 05:55:15;;;;;;;;;;;;;;;;;;6256677;22;19919;-95
2022/12/21 05:57:41;;;;;;;;;;;;;;;;;;6256651;22;19919;-94
2022/12/21 06:00:07;;;;;;;;;;;;;;;;;;6256250;22;19915;-94
2022/12/21 06:02:33;;;;;;;;;;;;;;;;;;6256714;22;20321;-95
2022/12/21 06:04:59;;;;;;;;;;;;;;;;;;6256553;22;19914;-96
2022/12/21 06:07:25;;;;;;;;;;;;;;;;;;6256834;22;20007;-95
2022/12/21 06:09:51;;;;;;;;;;;;;;;;;;6256189;22;19918;-95
2022/12/21 06:12:17;;;;;;;;;;;;;;;;;;6256430;22;19915;-95
2022/12/21 06:14:43;;;;;;;;;;;;;;;;;;6256316;22;19962;-95
2022/12/21 06:17:08;;;;;;;;;;;;;;;;;;6256475;22;19914;-95
2022/12/21 06:19:34;;;;;;;;;;;;;;;;;;6256354;22;19915;-95
2022/12/21 06:22:00;;;;;;;;;;;;;;;;;;6256315;22;19964;-95
2022/12/21 06:24:26;;;;;;;;;;;;;;;;;;6255946;22;19915;-95
2022/12/21 06:26:52;;;;;;;;;;;;;;;;;;6256533;22;19981;-95
2022/12/21 06:29:18;;;;;;;;;;;;;;;;;;6256206;22;20376;-95
2022/12/21 06:31:44;;;;;;;;;;;;;;;;;;6256225;22;20398;-95
2022/12/21 06:34:10;;;;;;;;;;;;;;;;;;6256170;22;19986;-95
2022/12/21 06:36:36;;;;;;;;;;;;;;;;;;6256262;22;20245;-95
2022/12/21 06:39:02;;;;;;;;;;;;;;;;;;6255940;22;19915;-94
2022/12/21 06:41:28;;;;;;;;;;;;;;;;;;6256038;22;19915;-95
2022/12/21 06:43:54;;;;;;;;;;;;;;;;;;6256017;22;19919;-95
2022/12/21 06:46:19;;;;;;;;;;;;;;;;;;6256668;22;19922;-95
2022/12/21 06:48:45;;;;;;;;;;;;;;;;;;6256019;22;19943;-94
2022/12/21 06:51:30;;;;;;;;;;;;;;;;;;6286010;22;19953;-95
2022/12/21 06:53:56;;;;;;;;;;;;;;;;;;6281739;22;19929;-95
2022/12/21 06:56:22;;;;;;;;;;;;;;;;;;6256054;22;19947;-95
2022/12/21 06:58:48;;;;;;;;;;;;;;;;;;6255853;22;19919;-94
2022/12/21 07:01:14;;;;;;;;;;;;;;;;;;6256621;22;19938;-94
2022/12/21 07:03:40;;;;;;;;;;;;;;;;;;6255952;22;19918;-95
2022/12/21 07:06:06;;;;;;;;;;;;;;;;;;6256178;22;19996;-94
2022/12/21 07:08:33;;;;;;;;;;;;;;;;;;6255806;22;19915;-95
2022/12/21 07:10:59;;;;;;;;;;;;;;;;;;6255764;22;19921;-94
2022/12/21 07:13:25;;;;;;;;;;;;;;;;;;6256043;22;19995;-95
2022/12/21 07:15:51;;;;;;;;;;;;;;;;;;6255826;22;19931;-94
2022/12/21 07:18:17;;;;;;;;;;;;;;;;;;6256912;22;20222;-94
2022/12/21 07:20:43;;;;;;;;;;;;;;;;;;6255809;22;19950;-94
2022/12/21 07:23:13;;;;;;;;;;;;;;;;;;6254192;22;19969;-93
2022/12/21 07:25:39;;;;;;;;;;;;;;;;;;6255272;22;19922;-93
2022/12/21 07:28:15;;;;;;;;;;;;;;;;;;6255546;22;19915;-96
2022/12/21 07:30:41;;;;;;;;;;;;;;;;;;6280389;22;19934;-91
2022/12/21 07:33:07;;;;;;;;;;;;;;;;;;6255244;22;19914;-93
2022/12/21 07:35:33;;;;;;;;;;;;;;;;;;6255464;22;19915;-94
2022/12/21 07:43:57;;;;;;;;;;;;;;;;;;6318895;22;19921;-93
2022/12/21 07:46:42;;;;;;;;;;;;;;;;;;6285133;22;19942;-92
2022/12/21 07:49:08;;;;;;;;;;;;;;;;;;6254990;22;20240;-91
2022/12/21 07:51:34;;;;;;;;;;;;;;;;;;6255301;22;20608;-92
2022/12/21 07:54:00;;;;;;;;;;;;;;;;;;6255192;22;19914;-90
2022/12/21 07:56:26;;;;;;;;;;;;;;;;;;6254546;22;19914;-91
2022/12/21 07:58:52;;;;;;;;;;;;;;;;;;6254710;22;20252;-91
2022/12/21 08:01:18;;;;;;;;;;;;;;;;;;6254806;22;19922;-91
2022/12/21 08:03:47;;;;;;;;;;;;;;;;;;6254755;22;19919;-91
2022/12/21 08:06:13;;;;;;;;;;;;;;;;;;6254655;22;19972;-92
2022/12/21 08:08:39;;;;;;;;;;;;;;;;;;6254873;22;20359;-90
2022/12/21 08:11:05;;;;;;;;;;;;;;;;;;6254564;22;19985;-93
2022/12/21 08:13:31;;;;;;;;;;;;;;;;;;6255054;22;19922;-92
2022/12/21 08:15:57;;;;;;;;;;;;;;;;;;6254377;22;19915;-92
2022/12/21 08:18:23;;;;;;;;;;;;;;;;;;6281309;22;20252;-95
2022/12/21 08:20:49;;;;;;;;;;;;;;;;;;6255305;22;19915;-93
2022/12/21 08:23:15;;;;;;;;;;;;;;;;;;6281357;22;19942;-94
2022/12/21 08:25:41;;;;;;;;;;;;;;;;;;6255800;22;19925;-92
2022/12/21 08:28:08;;;;;;;;;;;;;;;;;;6265981;22;19915;-95
2022/12/21 08:30:34;;;;;;;;;;;;;;;;;;6255363;22;19915;-93
2022/12/21 08:33:00;;;;;;;;;;;;;;;;;;6255803;22;20043;-95
2022/12/21 08:35:26;;;;;;;;;;;;;;;;;;6255514;22;19938;-93
2022/12/21 08:37:52;;;;;;;;;;;;;;;;;;6255178;22;19965;-92
2022/12/21 08:40:19;;;;;;;;;;;;;;;;;;6255304;22;19968;-95
2022/12/21 08:42:45;;;;;;;;;;;;;;;;;;6255683;22;19919;-95
2022/12/21 08:45:12;;;;;;;;;;;;;;;;;;6255833;22;19919;-94
2022/12/21 08:47:40;;;;;;;;;;;;;;;;;;6254547;22;20363;-96
2022/12/21 08:50:05;;;;;;;;;;;;;;;;;;6260742;22;19915;-95
2022/12/21 08:52:48;;;;;;;;;;;;;;;;;;6294408;22;19915;-94
2022/12/21 08:55:14;;;;;;;;;;;;;;;;;;6250708;22;19926;-92
2022/12/21 08:57:40;;;;;;;;;;;;;;;;;;6251725;22;19915;-93
2022/12/21 09:00:09;;;;;;;;;;;;;;;;;;6252126;22;19915;-91
2022/12/21 09:02:35;;;;;;;;;;;;;;;;;;6251368;22;19920;-92
2022/12/21 09:05:03;;;;;;;;;;;;;;;;;;6251792;22;19921;-92
2022/12/21 09:07:29;;;;;;;;;;;;;;;;;;6251371;22;19926;-88
2022/12/21 09:09:54;;;;;;;;;;;;;;;;;;6251081;22;20252;-90
2022/12/21 09:12:20;;;;;;;;;;;;;;;;;;6251108;22;19960;-91
2022/12/21 09:14:46;;;;;;;;;;;;;;;;;;6251092;22;19993;-90
2022/12/21 09:17:12;;;;;;;;;;;;;;;;;;6251457;22;20428;-91
2022/12/21 09:19:39;;;;;;;;;;;;;;;;;;6251185;22;19972;-91
2022/12/21 09:22:05;;;;;;;;;;;;;;;;;;6251368;22;19965;-90
2022/12/21 09:24:30;;;;;;;;;;;;;;;;;;6250729;22;20291;-89
2022/12/21 09:26:56;;;;;;;;;;;;;;;;;;6251157;22;19915;-93
2022/12/21 09:29:23;;;;;;;;;;;;;;;;;;6250971;22;19915;-91
2022/12/21 09:31:50;;;;;;;;;;;;;;;;;;6250925;22;19919;-91
2022/12/21 09:34:16;;;;;;;;;;;;;;;;;;6250770;22;19938;-88
2022/12/21 09:36:42;;;;;;;;;;;;;;;;;;6250882;22;19916;-91
2022/12/21 09:39:08;;;;;;;;;;;;;;;;;;6250734;22;19921;-89
2022/12/21 09:41:34;;;;;;;;;;;;;;;;;;6250743;22;20226;-91
2022/12/21 09:43:59;;;;;;;;;;;;;;;;;;6250784;22;19926;-90
2022/12/21 09:46:25;;;;;;;;;;;;;;;;;;6250475;22;20249;-89
2022/12/21 09:48:51;;;;;;;;;;;;;;;;;;6250288;22;19915;-89
2022/12/21 09:51:17;;;;;;;;;;;;;;;;;;6250813;22;19922;-91
2022/12/21 09:53:43;;;;;;;;;;;;;;;;;;6250842;22;19922;-91
2022/12/21 09:56:09;;;;;;;;;;;;;;;;;;6250585;22;20325;-92
2022/12/21 09:58:36;;;;;;;;;;;;;;;;;;6251064;22;19970;-93
2022/12/21 10:01:02;;;;;;;;;;;;;;;;;;6250922;22;19942;-89
2022/12/21 10:03:28;;;;;;;;;;;;;;;;;;6251347;22;20400;-93
2022/12/21 10:05:54;;;;;;;;;;;;;;;;;;6251217;22;19915;-92
2022/12/21 10:08:20;;;;;;;;;;;;;;;;;;6251141;22;19915;-94
2022/12/21 10:10:46;;;;;;;;;;;;;;;;;;6251589;22;19964;-95
2022/12/21 10:13:13;;;;;;;;;;;;;;;;;;6252118;22;19919;-96
2022/12/21 10:15:39;;;;;;;;;;;;;;;;;;6253881;22;19926;-95
2022/12/21 10:18:05;;;;;;;;;;;;;;;;;;6251086;22;19919;-94
2022/12/21 10:20:33;;;;;;;;;;;;;;;;;;6250942;22;19915;-92
2022/12/21 10:22:59;;;;;;;;;;;;;;;;;;6250849;22;19923;-95
2022/12/21 10:25:25;;;;;;;;;;;;;;;;;;6251086;22;19982;-92
2022/12/21 10:27:50;;;;;;;;;;;;;;;;;;6250839;22;19915;-92
2022/12/21 10:30:16;;;;;;;;;;;;;;;;;;6250979;22;19921;-92
2022/12/21 10:32:42;;;;;;;;;;;;;;;;;;6252978;22;19969;-95
2022/12/21 10:35:09;;;;;;;;;;;;;;;;;;6253955;22;19915;-92
2022/12/21 10:37:35;;;;;;;;;;;;;;;;;;6250557;22;19965;-91
2022/12/21 10:40:01;;;;;;;;;;;;;;;;;;6250380;22;19915;-94
2022/12/21 10:42:27;;;;;;;;;;;;;;;;;;6251288;22;19922;-94
2022/12/21 10:44:53;;;;;;;;;;;;;;;;;;6250853;22;19915;-94
2022/12/21 10:47:19;;;;;;;;;;;;;;;;;;6250983;22;19918;-95
2022/12/21 10:49:45;;;;;;;;;;;;;;;;;;6250734;22;19915;-95
2022/12/21 10:52:11;;;;;;;;;;;;;;;;;;6249918;22;19926;-95
2022/12/21 10:54:37;;;;;;;;;;;;;;;;;;6250034;22;19915;-94
2022/12/21 10:57:03;;;;;;;;;;;;;;;;;;6250105;22;20242;-94
2022/12/21 10:59:29;;;;;;;;;;;;;;;;;;6249846;22;19919;-94
2022/12/21 11:01:55;;;;;;;;;;;;;;;;;;6249936;22;19915;-94
2022/12/21 11:04:21;;;;;;;;;;;;;;;;;;6249791;22;19999;-94
2022/12/21 11:06:46;;;;;;;;;;;;;;;;;;6249825;22;20273;-95
2022/12/21 11:09:12;;;;;;;;;;;;;;;;;;6249823;22;19915;-93
2022/12/21 11:11:39;;;;;;;;;;;;;;;;;;6250071;22;19997;-95
2022/12/21 11:14:05;;;;;;;;;;;;;;;;;;6248836;22;19953;-95
2022/12/21 11:16:30;;;;;;;;;;;;;;;;;;6249289;22;20397;-94
2022/12/21 11:18:56;;;;;;;;;;;;;;;;;;6249335;22;19990;-94
2022/12/21 11:21:22;;;;;;;;;;;;;;;;;;6249643;22;19915;-95
2022/12/21 11:23:48;;;;;;;;;;;;;;;;;;6249674;22;19924;-95
2022/12/21 11:26:14;;;;;;;;;;;;;;;;;;6249671;22;20245;-94
2022/12/21 11:28:40;;;;;;;;;;;;;;;;;;6249835;22;19922;-94
2022/12/21 11:31:06;;;;;;;;;;;;;;;;;;6249490;22;19915;-94
2022/12/21 11:33:32;;;;;;;;;;;;;;;;;;6249828;22;19916;-95
2022/12/21 11:35:58;;;;;;;;;;;;;;;;;;6249224;22;19915;-94
2022/12/21 11:38:24;;;;;;;;;;;;;;;;;;6249631;22;20204;-94
2022/12/21 11:40:50;;;;;;;;;;;;;;;;;;6249910;22;19919;-95
2022/12/21 11:43:15;;;;;;;;;;;;;;;;;;6249839;22;19920;-94
2022/12/21 11:45:41;;;;;;;;;;;;;;;;;;6249694;22;19915;-95
2022/12/21 11:48:07;;;;;;;;;;;;;;;;;;6249550;22;20349;-95
2022/12/21 11:50:33;;;;;;;;;;;;;;;;;;6248993;22;19959;-94
2022/12/21 11:52:59;;;;;;;;;;;;;;;;;;6248625;22;19947;-92
2022/12/21 11:55:25;;;;;;;;;;;;;;;;;;6249246;22;19919;-92
2022/12/21 11:57:51;;;;;;;;;;;;;;;;;;6249321;22;19915;-91
2022/12/21 12:00:18;;;;;;;;;;;;;;;;;;6249013;22;19963;-92
2022/12/21 12:02:44;;;;;;;;;;;;;;;;;;6248747;22;19919;-92
2022/12/21 12:05:10;;;;;;;;;;;;;;;;;;6248670;22;19934;-91
2022/12/21 12:07:36;;;;;;;;;;;;;;;;;;6249102;22;20359;-92
2022/12/21 12:10:03;;;;;;;;;;;;;;;;;;6248934;22;19947;-93
2022/12/21 12:12:29;;;;;;;;;;;;;;;;;;6249202;22;20334;-93
2022/12/21 12:14:55;;;;;;;;;;;;;;;;;;6249429;22;19999;-93
2022/12/21 12:17:21;;;;;;;;;;;;;;;;;;6249262;22;19954;-94
2022/12/21 12:19:47;;;;;;;;;;;;;;;;;;6248260;22;20406;-94
2022/12/21 12:22:13;;;;;;;;;;;;;;;;;;6249759;22;19958;-94
2022/12/21 12:24:38;;;;;;;;;;;;;;;;;;6251018;22;19919;-93
2022/12/21 12:27:04;;;;;;;;;;;;;;;;;;6251528;22;19915;-93
2022/12/21 12:29:30;;;;;;;;;;;;;;;;;;6252276;22;19915;-93
2022/12/21 12:31:56;;;;;;;;;;;;;;;;;;6251357;22;19915;-93
2022/12/21 12:34:22;;;;;;;;;;;;;;;;;;6252230;22;19915;-93
2022/12/21 12:36:48;;;;;;;;;;;;;;;;;;6252043;22;19919;-93
2022/12/21 12:39:14;;;;;;;;;;;;;;;;;;6252113;22;19989;-93
2022/12/21 12:41:40;;;;;;;;;;;;;;;;;;6252051;22;19946;-93
2022/12/21 12:44:06;;;;;;;;;;;;;;;;;;6251661;22;19919;-94
2022/12/21 12:46:32;;;;;;;;;;;;;;;;;;6251575;22;19943;-93
2022/12/21 12:48:58;;;;;;;;;;;;;;;;;;6252054;22;20471;-90
2022/12/21 12:51:24;;;;;;;;;;;;;;;;;;6252079;22;19976;-91
2022/12/21 12:53:50;;;;;;;;;;;;;;;;;;6251344;22;19915;-92
2022/12/21 12:56:16;;;;;;;;;;;;;;;;;;6250856;22;19915;-91
2022/12/21 12:58:42;;;;;;;;;;;;;;;;;;6250268;22;19986;-91
2022/12/21 13:01:08;;;;;;;;;;;;;;;;;;6249981;22;19968;-92
2022/12/21 13:03:34;;;;;;;;;;;;;;;;;;6251678;22;19920;-95
2022/12/21 13:06:00;;;;;;;;;;;;;;;;;;6252356;22;19915;-95
2022/12/21 13:08:26;;;;;;;;;;;;;;;;;;6251710;22;19958;-91
2022/12/21 13:10:52;;;;;;;;;;;;;;;;;;6251046;22;19954;-90
2022/12/21 13:16:11;;;;;;;;;;;;;;;;;;6278722;22;19919;-91
2022/12/21 13:18:37;;;;;;;;;;;;;;;;;;6251436;22;19938;-92
2022/12/21 13:21:03;;;;;;;;;;;;;;;;;;6251379;22;20314;-92
2022/12/21 13:23:28;;;;;;;;;;;;;;;;;;6251519;22;19973;-95
2022/12/21 13:25:54;;;;;;;;;;;;;;;;;;6249640;22;19915;-95
2022/12/21 13:28:21;;;;;;;;;;;;;;;;;;6252329;22;20359;-94
2022/12/21 13:30:47;;;;;;;;;;;;;;;;;;6251943;22;20528;-94
2022/12/21 13:33:13;;;;;;;;;;;;;;;;;;6251079;22;20002;-93
2022/12/21 13:35:39;;;;;;;;;;;;;;;;;;6250699;22;19990;-93
2022/12/21 13:38:05;;;;;;;;;;;;;;;;;;6251535;22;20408;-96
2022/12/21 13:40:40;;;;;;;;;;;;;;;;;;6253843;22;19938;-91
2022/12/21 13:43:06;;;;;;;;;;;;;;;;;;6249453;22;19919;-91
2022/12/21 13:45:32;;;;;;;;;;;;;;;;;;6249055;22;19961;-92
2022/12/21 13:47:58;;;;;;;;;;;;;;;;;;6247938;22;20230;-90
2022/12/21 13:50:23;;;;;;;;;;;;;;;;;;6248007;22;19916;-90
2022/12/21 13:52:49;;;;;;;;;;;;;;;;;;6247930;22;19915;-90
2022/12/21 13:55:15;;;;;;;;;;;;;;;;;;6247780;22;19915;-90
2022/12/21 13:57:41;;;;;;;;;;;;;;;;;;6249581;22;19922;-91
2022/12/21 14:00:07;;;;;;;;;;;;;;;;;;6249699;22;19938;-92
2022/12/21 14:02:33;;;;;;;;;;;;;;;;;;6250143;22;19915;-92
2022/12/21 14:04:59;;;;;;;;;;;;;;;;;;6250002;22;19923;-92
2022/12/21 14:07:25;;;;;;;;;;;;;;;;;;6250155;22;19915;-90
2022/12/21 14:09:51;;;;;;;;;;;;;;;;;;6249779;22;19916;-91
2022/12/21 14:12:17;;;;;;;;;;;;;;;;;;6250469;22;20240;-91
2022/12/21 14:14:43;;;;;;;;;;;;;;;;;;6249975;22;19994;-91
2022/12/21 14:17:09;;;;;;;;;;;;;;;;;;6250108;22;19927;-91
2022/12/21 14:19:34;;;;;;;;;;;;;;;;;;6249900;22;19916;-91
2022/12/21 14:22:00;;;;;;;;;;;;;;;;;;6249939;22;19962;-90
2022/12/21 14:24:26;;;;;;;;;;;;;;;;;;6249798;22;19927;-92
2022/12/21 14:26:52;;;;;;;;;;;;;;;;;;6250066;22;20292;-91
2022/12/21 14:29:18;;;;;;;;;;;;;;;;;;6249569;22;19955;-91
2022/12/21 14:31:44;;;;;;;;;;;;;;;;;;6249742;22;19951;-92
2022/12/21 14:34:10;;;;;;;;;;;;;;;;;;6249727;22;20192;-92
2022/12/21 14:36:36;;;;;;;;;;;;;;;;;;6249830;22;19922;-90
2022/12/21 14:39:02;;;;;;;;;;;;;;;;;;6249620;22;20297;-91
2022/12/21 14:41:27;;;;;;;;;;;;;;;;;;6250089;22;19938;-91
2022/12/21 14:43:53;;;;;;;;;;;;;;;;;;6249249;22;19938;-91
2022/12/21 14:46:19;;;;;;;;;;;;;;;;;;6249413;22;19922;-90
2022/12/21 14:48:45;;;;;;;;;;;;;;;;;;6249312;22;19923;-91
2022/12/21 14:51:11;;;;;;;;;;;;;;;;;;6249477;22;19920;-91
2022/12/21 14:53:37;;;;;;;;;;;;;;;;;;6249578;22;20361;-92
2022/12/21 14:56:03;;;;;;;;;;;;;;;;;;6249642;22;19941;-91
2022/12/21 14:58:29;;;;;;;;;;;;;;;;;;6249647;22;19968;-91
2022/12/21 15:00:55;;;;;;;;;;;;;;;;;;6249890;22;19989;-92
2022/12/21 15:03:21;;;;;;;;;;;;;;;;;;6249623;22;20292;-92
2022/12/21 15:05:47;;;;;;;;;;;;;;;;;;6249501;22;19922;-92
2022/12/21 15:08:12;;;;;;;;;;;;;;;;;;6250182;22;20024;-92
2022/12/21 15:10:38;;;;;;;;;;;;;;;;;;6249691;22;19919;-92
2022/12/21 15:13:04;;;;;;;;;;;;;;;;;;6249699;22;19915;-92
2022/12/21 15:15:30;;;;;;;;;;;;;;;;;;6250286;22;19915;-95
2022/12/21 15:23:08;;;;;;;;;;;;;;;;;;6277232;22;19926;-93
2022/12/21 15:31:02;;;;;;;;;;;;;;;;;;6278319;22;20229;-95
2022/12/21 15:59:41;;;;;;;;;;;;;;;;;;6272243;22;19923;-91
2022/12/21 18:13:47;;;;;;;;;;;;;;;;;;6332573;22;19918;-91
2022/12/21 19:18:47;;;;;;;;;;;;;;;;;;6272171;22;19978;-93
2022/12/21 19:23:52;;;;;;;;;;;;;;;;;;6321796;22;19922;-96
2022/12/21 19:26:18;;;;;;;;;;;;;;;;;;6261931;22;19915;-96
2022/12/21 19:28:44;;;;;;;;;;;;;;;;;;6260121;22;19937;-96
2022/12/21 19:31:10;;;;;;;;;;;;;;;;;;6261962;22;19954;-96
2022/12/21 19:33:42;;;;;;;;;;;;;;;;;;6290110;22;20325;-96
2022/12/21 19:36:08;;;;;;;;;;;;;;;;;;6258679;22;19915;-96
2022/12/21 19:38:34;;;;;;;;;;;;;;;;;;6281239;22;19915;-96
2022/12/21 19:41:00;;;;;;;;;;;;;;;;;;6254341;22;19990;-96
2022/12/21 19:43:26;;;;;;;;;;;;;;;;;;6254748;22;19918;-96
2022/12/21 19:45:52;;;;;;;;;;;;;;;;;;6255491;22;20341;-96
2022/12/21 19:48:18;;;;;;;;;;;;;;;;;;6254362;22;19926;-96
2022/12/21 19:50:44;;;;;;;;;;;;;;;;;;6254661;22;19970;-95
2022/12/21 19:53:10;;;;;;;;;;;;;;;;;;6255146;22;19915;-95
2022/12/21 19:55:36;;;;;;;;;;;;;;;;;;6255347;22;19919;-96
2022/12/21 19:58:02;;;;;;;;;;;;;;;;;;6254711;22;19915;-95
2022/12/21 20:00:28;;;;;;;;;;;;;;;;;;6254418;22;19922;-94
2022/12/21 20:02:54;;;;;;;;;;;;;;;;;;6254428;22;19930;-93
2022/12/21 20:05:20;;;;;;;;;;;;;;;;;;6255058;22;19915;-95
2022/12/21 20:07:45;;;;;;;;;;;;;;;;;;6254860;22;20245;-96
2022/12/21 20:10:11;;;;;;;;;;;;;;;;;;6254500;22;20260;-96
2022/12/21 20:12:37;;;;;;;;;;;;;;;;;;6254499;22;20334;-94
2022/12/21 20:15:04;;;;;;;;;;;;;;;;;;6254508;22;19946;-96
2022/12/21 20:17:30;;;;;;;;;;;;;;;;;;6254559;22;20313;-95
2022/12/21 20:19:56;;;;;;;;;;;;;;;;;;6253953;22;19915;-96
2022/12/21 20:22:21;;;;;;;;;;;;;;;;;;6280614;22;19980;-96
2022/12/21 20:24:47;;;;;;;;;;;;;;;;;;6254490;22;19919;-96
2022/12/21 20:27:13;;;;;;;;;;;;;;;;;;6254604;22;20359;-96
2022/12/21 20:29:40;;;;;;;;;;;;;;;;;;6255091;22;19946;-96
2022/12/21 20:32:06;;;;;;;;;;;;;;;;;;6255622;22;19914;-96
2022/12/21 20:34:35;;;;;;;;;;;;;;;;;;6281634;22;20297;-95
2022/12/21 20:37:00;;;;;;;;;;;;;;;;;;6254586;22;19949;-96
2022/12/21 20:39:26;;;;;;;;;;;;;;;;;;6254777;22;19915;-96
2022/12/21 20:44:37;;;;;;;;;;;;;;;;;;6312157;22;19919;-94
2022/12/21 20:47:03;;;;;;;;;;;;;;;;;;6258164;22;19921;-94
2022/12/21 20:49:29;;;;;;;;;;;;;;;;;;6260146;22;19960;-95
2022/12/21 20:51:55;;;;;;;;;;;;;;;;;;6284348;22;19961;-96
2022/12/21 20:54:21;;;;;;;;;;;;;;;;;;6256764;22;19915;-96
2022/12/21 20:56:48;;;;;;;;;;;;;;;;;;6257584;22;19915;-96
2022/12/21 20:59:16;;;;;;;;;;;;;;;;;;6260300;22;20337;-96
2022/12/21 21:01:59;;;;;;;;;;;;;;;;;;6266623;22;19915;-95
2022/12/21 21:04:34;;;;;;;;;;;;;;;;;;6269937;22;19962;-95
2022/12/21 21:07:00;;;;;;;;;;;;;;;;;;6261656;22;20222;-96